Time;durP1;ratioP1;P1;durP2;ratioP2;P2;SDS_P1;SDS_P2;PMS_P1;PMS_P2;Temp;Humidity;BMP_temperature;BMP_pressure;BME280_temperature;BME280_humidity;BME280_pressure;Samples;Min_cycle;Max_cycle;Signal;HPM_P1;HPM_P2
2022/04/26 03:38:18;;;;;;;12.57;8.55;;;;;;;7.56;100.00;100040.03;4517720;31;20083;-70
2022/04/26 03:40:45;;;;;;;11.68;8.68;;;;;;;7.63;100.00;100056.56;4517663;31;20178;-70
2022/04/26 03:43:12;;;;;;;12.65;8.80;;;;;;;7.70;100.00;100058.28;4517716;31;20795;-70
2022/04/26 03:45:39;;;;;;;11.70;8.90;;;;;;;7.76;100.00;100066.12;4517612;31;20110;-70
2022/04/26 03:48:08;;;;;;;13.13;10.18;;;;;;;7.80;100.00;100069.59;4517492;31;20107;-70
2022/04/26 03:50:35;;;;;;;15.00;10.27;;;;;;;7.75;99.55;100071.37;4517452;31;20126;-70
2022/04/26 03:53:02;;;;;;;14.90;10.80;;;;;;;7.73;99.68;100079.25;4517381;31;20130;-70
2022/04/26 03:55:30;;;;;;;13.05;10.20;;;;;;;7.70;99.13;100081.00;4517573;31;20376;-70
2022/04/26 03:57:58;;;;;;;13.62;9.75;;;;;;;7.63;99.20;100088.03;4516257;31;20481;-70
2022/04/26 04:00:26;;;;;;;13.82;9.02;;;;;;;7.61;99.82;100098.53;4505890;31;20100;-70
2022/04/26 04:02:54;;;;;;;12.20;8.63;;;;;;;7.63;99.74;100091.56;4517434;31;20414;-70
2022/04/26 04:05:22;;;;;;;11.60;8.82;;;;;;;7.62;99.29;100102.91;4510240;31;20151;-70
2022/04/26 04:07:49;;;;;;;12.75;9.27;;;;;;;7.60;99.80;100101.19;4501539;31;20121;-69
2022/04/26 04:10:16;;;;;;;12.85;8.70;;;;;;;7.65;99.46;100102.03;4501391;31;20117;-70
2022/04/26 04:12:43;;;;;;;12.63;9.68;;;;;;;7.64;99.08;100109.03;4501441;31;20123;-69
2022/04/26 04:15:10;;;;;;;16.62;10.45;;;;;;;7.67;99.46;100105.53;4503493;31;20083;-70
2022/04/26 04:17:38;;;;;;;13.40;10.38;;;;;;;7.70;99.20;100113.34;4506585;31;20170;-70
2022/04/26 04:20:06;;;;;;;13.43;9.02;;;;;;;7.70;99.20;100109.84;4509947;31;20520;-70
2022/04/26 04:22:39;;;;;;;12.82;9.25;;;;;;;7.68;99.38;100114.25;4495460;31;20146;-70
2022/04/26 04:25:06;;;;;;;23.00;11.30;;;;;;;7.64;98.33;100121.25;4515254;31;20129;-69
2022/04/26 04:27:34;;;;;;;17.85;11.38;;;;;;;7.51;98.82;100124.81;4517445;31;20522;-70
2022/04/26 04:30:02;;;;;;;19.05;11.23;;;;;;;7.48;98.87;100130.91;4502431;31;20115;-69
2022/04/26 04:32:30;;;;;;;20.20;11.63;;;;;;;7.51;98.83;100130.91;4510568;31;20122;-69
2022/04/26 04:34:59;;;;;;;18.00;10.93;;;;;;;7.63;98.47;100135.22;4500972;31;20105;-70
2022/04/26 04:37:26;;;;;;;15.45;9.60;;;;;;;7.74;97.88;100133.47;4500210;31;20134;-69
2022/04/26 04:39:53;;;;;;;18.05;10.02;;;;;;;7.87;97.30;100132.50;4500752;31;20092;-70
2022/04/26 04:42:21;;;;;;;13.43;9.55;;;;;;;7.94;96.99;100137.72;4501247;31;20095;-70
2022/04/26 04:44:49;;;;;;;15.75;10.48;;;;;;;8.01;97.00;100139.44;4500521;31;20416;-70
2022/04/26 04:47:16;;;;;;;16.40;10.27;;;;;;;8.04;96.49;100139.41;4511212;31;20107;-70
2022/04/26 04:49:43;;;;;;;14.90;9.80;;;;;;;7.99;96.47;100139.47;4517072;31;20463;-69
2022/04/26 04:52:10;;;;;;;15.65;9.98;;;;;;;7.92;97.12;100147.38;4516853;31;20601;-69
2022/04/26 04:54:37;;;;;;;19.73;9.95;;;;;;;7.85;97.56;100147.41;4506112;31;20123;-70
2022/04/26 04:57:05;;;;;;;16.27;10.27;;;;;;;7.95;97.15;100156.09;4501228;31;20083;-69
2022/04/26 04:59:33;;;;;;;17.33;10.80;;;;;;;8.00;97.19;100151.69;4501513;31;20475;-69
2022/04/26 05:02:01;;;;;;;18.42;10.48;;;;;;;7.98;97.27;100155.19;4501423;31;20095;-69
2022/04/26 05:04:28;;;;;;;13.10;9.93;;;;;;;7.98;97.55;100152.56;4500890;31;20129;-69
2022/04/26 05:06:56;;;;;;;15.98;10.60;;;;;;;8.02;97.45;100157.81;4500811;31;20121;-69
2022/04/26 05:09:23;;;;;;;19.20;10.80;;;;;;;8.09;97.22;100159.53;4500472;31;20126;-69
2022/04/26 05:11:52;;;;;;;16.10;10.43;;;;;;;8.26;97.04;100162.03;4500830;31;20083;-69
2022/04/26 05:14:20;;;;;;;20.52;9.93;;;;;;;8.54;95.67;100165.38;4501644;31;20079;-70
2022/04/26 05:16:47;;;;;;;11.95;8.45;;;;;;;8.76;94.40;100173.09;4501170;31;20088;-70
2022/04/26 05:19:14;;;;;;;13.77;8.43;;;;;;;8.99;93.45;100167.66;4501432;31;20104;-69
2022/04/26 05:21:41;;;;;;;15.00;8.77;;;;;;;9.13;91.93;100176.28;4501527;31;20115;-70
2022/04/26 05:26:54;;;;;;;10.05;7.18;;;;;;;9.40;90.64;100180.41;4500796;31;20095;-70
2022/04/26 05:29:21;;;;;;;13.02;7.80;;;;;;;9.57;89.17;100181.09;4500762;31;20126;-70
2022/04/26 05:31:49;;;;;;;7.97;6.75;;;;;;;9.72;88.20;100185.31;4500390;31;20104;-70
2022/04/26 05:34:16;;;;;;;8.13;6.20;;;;;;;9.88;87.67;100178.09;4500086;31;20163;-69
2022/04/26 05:36:43;;;;;;;9.63;6.90;;;;;;;9.99;85.55;100186.72;4500394;31;20118;-70
2022/04/26 05:39:10;;;;;;;7.20;5.97;;;;;;;10.11;86.17;100187.50;4503620;31;20155;-70
2022/04/26 05:41:43;;;;;;;7.87;5.43;;;;;;;10.19;84.27;100183.84;4507462;31;20103;-69
2022/04/26 05:44:10;;;;;;;10.55;5.78;;;;;;;10.36;83.67;100181.03;4508317;31;20099;-69
2022/04/26 05:46:37;;;;;;;5.90;5.15;;;;;;;10.53;83.16;100179.00;4507227;31;20103;-69
2022/04/26 05:49:05;;;;;;;6.00;4.85;;;;;;;10.61;81.57;100184.16;4505997;31;20096;-69
2022/04/26 05:51:32;;;;;;;7.90;5.10;;;;;;;10.62;81.22;100188.53;4504212;31;20494;-69
2022/04/26 05:53:59;;;;;;;8.63;5.35;;;;;;;10.67;80.14;100185.81;4507608;31;20083;-70
2022/04/26 05:56:27;;;;;;;5.95;5.10;;;;;;;10.86;80.77;100182.00;4490543;31;20099;-70
2022/04/26 05:58:54;;;;;;;7.40;4.90;;;;;;;10.93;79.85;100196.81;4502383;31;20091;-70
2022/04/26 06:01:21;;;;;;;5.28;4.78;;;;;;;11.03;77.73;100194.06;4502626;31;20096;-70
2022/04/26 06:03:49;;;;;;;5.72;4.93;;;;;;;11.12;78.76;100197.38;4488128;31;20114;-70
2022/04/26 06:06:17;;;;;;;4.97;4.45;;;;;;;11.27;77.24;100201.50;4517300;31;20128;-69
2022/04/26 06:08:44;;;;;;;4.90;4.40;;;;;;;11.24;76.45;100198.94;4517457;31;20433;-69
2022/04/26 06:11:15;;;;;;;5.47;4.68;;;;;;;11.25;75.92;100192.78;4515677;31;20083;-69
2022/04/26 06:13:42;;;;;;;9.50;6.40;;;;;;;11.32;76.66;100194.41;4501508;31;20117;-69
2022/04/26 06:16:09;;;;;;;9.25;5.35;;;;;;;11.41;76.07;100198.62;4501654;31;20095;-69
2022/04/26 06:18:37;;;;;;;6.75;5.43;;;;;;;11.49;75.93;100189.69;4502347;31;20134;-69
2022/04/26 06:21:05;;;;;;;8.65;5.40;;;;;;;11.53;75.35;100190.50;4502755;31;20115;-69
2022/04/26 06:23:33;;;;;;;6.43;4.78;;;;;;;11.73;75.48;100190.09;4502660;31;20087;-69
2022/04/26 06:26:01;;;;;;;10.95;4.82;;;;;;;11.79;73.43;100199.69;4502978;31;20091;-69
2022/04/26 06:28:28;;;;;;;5.37;4.37;;;;;;;11.76;73.46;100195.31;4488163;31;20099;-69
2022/04/26 06:30:56;;;;;;;5.53;4.37;;;;;;;11.77;72.86;100196.22;4503038;31;20095;-69
2022/04/26 06:33:23;;;;;;;6.35;4.70;;;;;;;11.71;72.35;100198.06;4502695;31;20518;-69
2022/04/26 06:35:51;;;;;;;5.90;5.07;;;;;;;11.72;72.96;100206.84;4502673;31;20091;-70
2022/04/26 06:38:18;;;;;;;6.05;4.72;;;;;;;11.76;73.60;100191.81;4502538;31;20146;-70
2022/04/26 06:40:49;;;;;;;5.30;4.80;;;;;;;11.95;72.70;100191.47;4502721;31;20096;-69
2022/04/26 06:43:16;;;;;;;4.97;4.47;;;;;;;12.08;73.07;100194.69;4502772;31;20473;-70
2022/04/26 06:45:44;;;;;;;5.70;4.50;;;;;;;12.16;70.93;100192.78;4502934;31;20125;-70
2022/04/26 06:48:14;;;;;;;6.00;4.45;;;;;;;12.20;71.42;100190.94;4507674;31;20146;-71
2022/04/26 06:50:41;;;;;;;4.53;4.10;;;;;;;12.39;70.73;100201.97;4502537;31;20111;-70
2022/04/26 06:53:08;;;;;;;8.75;4.78;;;;;;;12.44;69.65;100205.38;4503708;31;20079;-70
2022/04/26 06:55:36;;;;;;;6.60;4.22;;;;;;;12.55;69.30;100192.81;4518861;31;20166;-69
2022/04/26 06:58:04;;;;;;;5.22;4.03;;;;;;;12.69;69.36;100184.56;4518535;31;20137;-71
2022/04/26 07:00:31;;;;;;;4.37;3.60;;;;;;;12.89;67.43;100194.62;4518865;31;20175;-71
2022/04/26 07:02:59;;;;;;;4.47;4.07;;;;;;;12.90;68.34;100191.09;4518789;31;20138;-68
2022/04/26 07:05:26;;;;;;;4.25;3.55;;;;;;;13.07;66.33;100194.19;4518496;31;20143;-69
2022/04/26 07:07:53;;;;;;;6.72;3.65;;;;;;;13.08;64.97;100206.50;4518143;31;20096;-68
2022/04/26 07:10:24;;;;;;;3.72;2.87;;;;;;;13.27;65.79;100199.00;4517920;31;20791;-69
2022/04/26 07:12:51;;;;;;;3.22;2.87;;;;;;;13.49;63.59;100209.00;4517748;31;20099;-69
2022/04/26 07:15:19;;;;;;;4.35;3.90;;;;;;;13.60;63.63;100206.94;4515245;31;20099;-69
2022/04/26 07:17:46;;;;;;;7.55;3.30;;;;;;;13.62;64.57;100207.78;4502375;31;20106;-69
2022/04/26 07:20:15;;;;;;;5.00;3.58;;;;;;;13.81;64.68;100202.84;4501626;31;20100;-68
2022/04/26 07:22:42;;;;;;;3.20;2.87;;;;;;;13.86;64.89;100201.81;4502524;31;20110;-68
2022/04/26 07:25:12;;;;;;;5.82;3.00;;;;;;;13.97;62.75;100206.78;4502527;31;20151;-69
2022/04/26 07:27:40;;;;;;;10.43;3.72;;;;;;;13.94;61.02;100201.59;4502515;31;20085;-68
2022/04/26 07:30:08;;;;;;;2.90;2.50;;;;;;;13.90;61.15;100207.88;4502762;31;20091;-68
2022/04/26 07:35:21;;;;;;;7.57;3.28;;;;;;;14.22;59.03;100204.28;4505088;31;20126;-68
2022/04/26 07:37:48;;;;;;;3.37;3.08;;;;;;;14.33;59.69;100204.84;4502385;31;20088;-68
2022/04/26 07:40:18;;;;;;;4.47;2.58;;;;;;;14.49;60.23;100204.41;4502412;31;20134;-67
2022/04/26 07:42:45;;;;;;;4.12;2.95;;;;;;;14.53;56.26;100208.72;4508778;31;20109;-68
2022/04/26 07:45:12;;;;;;;2.12;2.03;;;;;;;14.56;56.95;100205.97;4507638;31;20154;-68
2022/04/26 07:47:39;;;;;;;4.28;2.10;;;;;;;14.47;56.86;100207.06;4510115;31;20127;-68
2022/04/26 07:50:07;;;;;;;3.22;2.70;;;;;;;14.76;57.88;100207.97;4511176;31;20137;-69
2022/04/26 07:52:35;;;;;;;2.62;1.90;;;;;;;14.88;54.55;100218.22;4518320;31;20154;-68
2022/04/26 07:55:02;;;;;;;4.07;1.98;;;;;;;14.85;55.81;100212.12;4515481;31;20733;-69
2022/04/26 07:57:29;;;;;;;1.77;1.67;;;;;;;15.04;54.19;100218.56;4512756;31;20095;-68
2022/04/26 07:59:58;;;;;;;1.70;1.60;;;;;;;15.00;53.33;100215.16;4502269;31;20103;-68
2022/04/26 08:02:25;;;;;;;1.42;1.33;;;;;;;15.02;53.47;100217.78;4510094;31;20159;-68
2022/04/26 08:04:54;;;;;;;1.33;1.10;;;;;;;15.16;52.17;100217.28;4509617;31;20401;-68
2022/04/26 08:07:21;;;;;;;2.00;1.90;;;;;;;15.46;51.49;100224.22;4501615;31;20135;-69
2022/04/26 08:09:48;;;;;;;2.35;1.80;;;;;;;15.57;51.10;100221.19;4501548;31;20116;-69
2022/04/26 08:12:16;;;;;;;2.08;1.87;;;;;;;15.59;53.03;100224.66;4501553;31;20122;-69
2022/04/26 08:14:43;;;;;;;1.52;1.42;;;;;;;15.60;53.00;100220.22;4501602;31;20159;-70
2022/04/26 08:17:11;;;;;;;1.83;1.73;;;;;;;15.78;49.95;100227.56;4501712;31;20788;-69
2022/04/26 08:19:39;;;;;;;1.10;1.10;;;;;;;15.86;49.20;100228.16;4501160;31;20179;-70
2022/04/26 08:22:06;;;;;;;1.45;1.33;;;;;;;15.90;48.16;100229.78;4502070;31;20079;-69
2022/04/26 08:27:22;;;;;;;1.20;1.20;;;;;;;16.15;46.00;100231.56;4502116;31;20088;-69
2022/04/26 08:29:49;;;;;;;1.15;1.15;;;;;;;16.09;44.91;100232.63;4502138;31;20096;-69
2022/04/26 08:32:17;;;;;;;9.55;1.48;;;;;;;16.42;46.60;100234.94;4486579;31;20077;-69
2022/04/26 08:34:44;;;;;;;6.47;1.20;;;;;;;16.41;44.72;100235.88;4503445;31;20142;-69
2022/04/26 08:37:11;;;;;;;1.52;1.42;;;;;;;16.37;46.22;100236.91;4509259;31;20850;-69
2022/04/26 08:39:38;;;;;;;1.50;1.40;;;;;;;16.23;46.29;100250.72;4508550;31;20187;-69
2022/04/26 08:42:06;;;;;;;1.70;1.60;;;;;;;16.42;46.88;100242.91;4515415;31;20188;-69
2022/04/26 08:44:34;;;;;;;1.58;1.48;;;;;;;16.51;46.20;100247.03;4502025;31;20079;-69
2022/04/26 08:52:49;;;;;;;1.73;1.62;;;;;;;16.43;45.90;100245.53;4514755;31;20095;-69
2022/04/26 08:55:17;;;;;;;1.30;1.25;;;;;;;16.48;45.07;100248.00;4508067;31;20139;-69
2022/04/26 08:57:45;;;;;;;1.45;1.35;;;;;;;16.59;43.56;100244.94;4507948;31;20091;-69
2022/04/26 09:00:13;;;;;;;1.58;1.48;;;;;;;16.73;42.89;100262.09;4506145;31;20170;-67
2022/04/26 09:02:41;;;;;;;1.60;1.50;;;;;;;16.72;43.06;100252.38;4513735;31;20517;-68
2022/04/26 09:05:15;;;;;;;1.15;1.15;;;;;;;16.90;43.37;100248.16;4509484;31;20091;-68
2022/04/26 09:07:47;;;;;;;0.93;0.85;;;;;;;16.90;42.50;100240.16;4500448;31;20128;-68
2022/04/26 09:10:18;;;;;;;4.43;1.10;;;;;;;16.97;40.33;100238.13;4508839;31;20178;-68
2022/04/26 09:13:06;;;;;;;2.85;1.12;;;;;;;17.02;40.52;100241.47;4500363;31;20109;-67
2022/04/26 09:15:42;;;;;;;3.15;0.70;;;;;;;17.28;42.45;100236.84;4500851;31;20430;-68
2022/04/26 09:18:21;;;;;;;0.80;0.80;;;;;;;17.56;39.50;100237.44;4501483;31;20080;-67
2022/04/26 09:20:51;;;;;;;2.28;0.80;;;;;;;17.65;39.97;100231.69;4507724;31;20100;-68
2022/04/26 09:23:22;;;;;;;1.87;0.68;;;;;;;18.15;39.63;100236.59;4499958;31;20080;-68
2022/04/26 09:26:10;;;;;;;0.80;0.80;;;;;;;18.20;36.91;100239.06;4499898;31;20156;-68
2022/04/26 09:28:48;;;;;;;1.45;0.85;;;;;;;18.10;39.36;100249.28;4507322;31;20104;-67
2022/04/26 09:31:26;;;;;;;2.03;1.02;;;;;;;18.00;37.88;100255.97;4511933;31;20079;-67
2022/04/26 09:33:56;;;;;;;1.40;1.05;;;;;;;17.91;39.95;100251.91;4505512;31;20087;-67
2022/04/26 09:36:26;;;;;;;2.15;1.02;;;;;;;18.06;40.42;100242.38;4502759;31;20132;-68
2022/04/26 09:38:59;;;;;;;0.70;0.70;;;;;;;18.26;39.20;100243.25;4504788;31;20466;-68
2022/04/26 09:41:28;;;;;;;1.02;1.02;;;;;;;18.20;37.26;100232.84;4502632;31;20134;-68
2022/04/26 09:43:55;;;;;;;1.40;1.23;;;;;;;18.64;38.74;100230.78;4502259;31;20148;-68
2022/04/26 09:46:23;;;;;;;1.92;1.73;;;;;;;19.05;38.88;100239.50;4501573;31;20126;-68
2022/04/26 09:48:53;;;;;;;1.80;1.70;;;;;;;18.93;40.12;100240.09;4505206;31;20147;-68
2022/04/26 09:51:20;;;;;;;1.70;1.60;;;;;;;18.67;41.13;100246.66;4502705;31;20233;-67
2022/04/26 09:53:47;;;;;;;1.35;1.35;;;;;;;19.10;40.90;100237.47;4510657;31;20147;-68
2022/04/26 09:56:18;;;;;;;1.50;1.40;;;;;;;19.51;37.42;100236.34;4518417;31;20756;-68
2022/04/26 09:58:53;;;;;;;2.75;2.08;;;;;;;20.03;38.43;100236.28;4518733;31;20095;-67
2022/04/26 10:01:21;;;;;;;1.87;1.73;;;;;;;20.31;36.67;100230.31;4519126;31;20162;-67
2022/04/26 10:03:52;;;;;;;2.75;2.25;;;;;;;20.36;37.61;100227.41;4518863;31;20136;-68
2022/04/26 10:06:22;;;;;;;3.53;1.90;;;;;;;20.36;36.45;100235.44;4519104;31;20071;-68
2022/04/26 10:08:51;;;;;;;2.00;1.80;;;;;;;20.40;38.34;100227.16;4519274;31;20228;-67
2022/04/26 10:11:18;;;;;;;9.23;1.60;;;;;;;20.74;37.37;100225.28;4511559;31;20129;-68
2022/04/26 10:13:48;;;;;;;1.67;1.40;;;;;;;20.92;36.86;100229.63;4502977;31;20099;-68
2022/04/26 10:16:21;;;;;;;2.35;2.15;;;;;;;20.57;38.58;100225.41;4505024;31;20084;-67
2022/04/26 10:18:50;;;;;;;2.58;2.37;;;;;;;20.64;38.38;100226.78;4509042;31;20174;-67
2022/04/26 10:21:23;;;;;;;4.03;2.00;;;;;;;20.86;37.43;100221.94;4502941;31;20873;-68
2022/04/26 10:23:50;;;;;;;2.05;1.92;;;;;;;20.88;37.13;100214.66;4502326;31;20758;-68
2022/04/26 10:26:27;;;;;;;2.20;2.10;;;;;;;20.85;37.29;100203.25;4501407;31;20115;-67
2022/04/26 10:28:57;;;;;;;3.25;2.10;;;;;;;20.77;37.33;100198.34;4500660;31;20118;-68
2022/04/26 10:31:37;;;;;;;2.35;2.20;;;;;;;20.45;37.66;100206.34;4500438;31;20136;-67
2022/04/26 10:34:26;;;;;;;6.30;2.00;;;;;;;19.52;39.98;100208.66;4499814;31;20110;-67
2022/04/26 10:37:13;;;;;;;8.07;2.30;;;;;;;19.09;40.78;100210.84;4499764;31;20179;-67
2022/04/26 10:39:43;;;;;;;4.22;2.45;;;;;;;19.71;39.15;100209.44;4499110;31;20478;-68
2022/04/26 10:42:10;;;;;;;3.37;3.08;;;;;;;20.13;39.11;100205.44;4500375;31;20171;-69
2022/04/26 10:44:44;;;;;;;3.80;2.15;;;;;;;20.47;39.50;100206.28;4500609;31;20104;-68
2022/04/26 10:47:18;;;;;;;2.67;2.20;;;;;;;20.94;37.82;100203.59;4500146;31;20126;-69
2022/04/26 10:49:46;;;;;;;3.55;3.15;;;;;;;20.95;38.19;100205.34;4500998;31;20114;-69
2022/04/26 10:52:25;;;;;;;2.30;2.20;;;;;;;21.63;37.12;100198.69;4501097;31;20186;-69
2022/04/26 10:54:58;;;;;;;4.25;2.55;;;;;;;21.65;36.59;100199.44;4501057;31;20092;-69
2022/04/26 10:57:27;;;;;;;2.53;1.95;;;;;;;21.58;36.81;100201.62;4501875;31;20084;-70
2022/04/26 11:00:08;;;;;;;2.10;1.95;;;;;;;21.84;37.63;100194.69;4502721;31;20497;-69
2022/04/26 11:02:39;;;;;;;2.40;2.20;;;;;;;21.93;36.39;100207.53;4501278;31;20107;-69
2022/04/26 11:05:16;;;;;;;5.30;2.28;;;;;;;21.88;36.78;100200.75;4502789;31;20459;-69
2022/04/26 11:07:46;;;;;;;4.45;2.47;;;;;;;22.36;36.74;100196.81;4515729;31;20443;-69
2022/04/26 11:10:18;;;;;;;3.03;2.70;;;;;;;21.80;37.33;100198.53;4517574;31;20099;-69
2022/04/26 11:12:45;;;;;;;3.03;2.72;;;;;;;22.18;37.41;100192.63;4504940;31;20103;-69
2022/04/26 11:15:21;;;;;;;2.40;2.30;;;;;;;22.63;36.23;100190.63;4503769;31;20168;-69
2022/04/26 11:17:51;;;;;;;2.20;2.10;;;;;;;22.89;36.01;100208.56;4502220;31;20114;-69
2022/04/26 11:20:20;;;;;;;3.92;3.03;;;;;;;23.33;33.39;100198.56;4501480;31;20131;-69
2022/04/26 11:22:53;;;;;;;2.85;2.25;;;;;;;24.97;31.85;100203.06;4502333;31;20108;-69
2022/04/26 11:28:12;;;;;;;6.80;3.15;;;;;;;26.59;30.42;100205.78;4500501;31;20091;-70
2022/04/26 11:30:41;;;;;;;2.60;2.40;;;;;;;25.06;31.10;100201.53;4499951;31;20145;-69
2022/04/26 11:33:11;;;;;;;2.53;2.33;;;;;;;26.12;30.56;100194.25;4500905;31;20133;-69
2022/04/26 11:35:39;;;;;;;6.87;2.97;;;;;;;26.91;29.57;100186.91;4486040;31;20195;-69
2022/04/26 11:38:10;;;;;;;7.00;3.22;;;;;;;26.14;29.10;100193.13;4486239;31;20115;-68
2022/04/26 11:40:41;;;;;;;8.15;3.10;;;;;;;25.77;30.91;100192.47;4500636;31;20122;-69
2022/04/26 11:43:13;;;;;;;2.72;2.53;;;;;;;24.87;31.95;100188.56;4501526;31;20175;-69
2022/04/26 11:45:43;;;;;;;5.80;3.17;;;;;;;24.20;33.99;100197.84;4511068;31;20764;-69
2022/04/26 11:48:16;;;;;;;5.03;2.97;;;;;;;23.21;33.90;100194.00;4518195;31;20158;-69
2022/04/26 11:50:45;;;;;;;3.00;2.78;;;;;;;22.94;34.57;100191.34;4511880;31;20987;-69
2022/04/26 11:53:24;;;;;;;4.90;3.17;;;;;;;22.72;34.45;100191.84;4515195;31;20158;-69
2022/04/26 11:55:52;;;;;;;3.72;2.20;;;;;;;23.15;35.82;100184.53;4502096;31;20101;-69
2022/04/26 11:58:20;;;;;;;2.53;2.33;;;;;;;22.45;35.61;100186.47;4512039;31;20499;-69
2022/04/26 12:01:02;;;;;;;8.75;3.15;;;;;;;22.58;35.87;100184.69;4517675;31;20087;-69
2022/04/26 12:03:56;;;;;;;3.70;3.40;;;;;;;23.23;34.44;100176.81;4517064;31;20798;-69
2022/04/26 12:06:28;;;;;;;3.00;2.40;;;;;;;23.91;33.48;100182.94;4513800;31;20445;-69
2022/04/26 12:08:58;;;;;;;2.30;2.10;;;;;;;23.94;32.85;100183.56;4517189;31;20079;-69
2022/04/26 12:13:43;;;;;;;2.12;2.03;;;;;;;24.24;31.10;100188.63;4477697;32;87058;-69
2022/04/26 12:16:20;;;;;;;2.58;1.87;;;;;;;24.24;31.10;100188.63;4480877;32;20484;-69
2022/04/26 12:19:05;;;;;;;2.37;2.17;;;;;;;24.68;31.42;100165.69;4465389;32;20080;-69
2022/04/26 12:21:49;;;;;;;2.30;2.10;;;;;;;25.65;28.64;100166.44;4479784;31;20206;-69
2022/04/26 12:24:17;;;;;;;3.22;2.25;;;;;;;27.21;27.27;100166.41;4479867;32;20157;-69
2022/04/26 12:27:00;;;;;;;4.37;1.90;;;;;;;27.53;27.15;100166.41;4480260;32;20517;-69
2022/04/26 12:29:39;;;;;;;1.83;1.70;;;;;;;27.15;26.61;100160.56;4477539;32;20088;-69
2022/04/26 12:32:09;;;;;;;5.35;2.42;;;;;;;25.74;29.81;100157.62;4465850;32;20512;-69
2022/04/26 12:34:36;;;;;;;2.62;2.37;;;;;;;25.19;29.73;100161.88;4473055;32;20127;-69
2022/04/26 12:37:10;;;;;;;6.72;2.17;;;;;;;24.55;29.94;100149.53;4481391;31;20096;-69
2022/04/26 12:39:41;;;;;;;2.67;2.47;;;;;;;24.21;31.90;100153.84;4481233;31;20072;-69
2022/04/26 12:42:10;;;;;;;2.95;2.60;;;;;;;24.57;31.45;100154.84;4481854;31;20084;-69
2022/04/26 12:44:51;;;;;;;3.17;2.75;;;;;;;24.74;30.69;100151.75;4481576;31;20156;-69
2022/04/26 12:50:29;;;;;;;11.10;2.22;;;;;;;25.25;30.08;100148.81;4481762;31;20174;-70
2022/04/26 12:53:06;;;;;;;2.15;2.05;;;;;;;25.87;29.34;100144.91;4481839;32;20138;-69
2022/04/26 12:55:38;;;;;;;2.12;2.03;;;;;;;25.68;28.74;100142.75;4451917;32;20123;-70
2022/04/26 12:58:14;;;;;;;7.00;2.50;;;;;;;24.82;29.63;100137.72;4466339;32;20763;-70
2022/04/26 13:00:45;;;;;;;2.30;2.00;;;;;;;23.71;30.90;100141.28;4466099;32;20103;-68
2022/04/26 13:03:16;;;;;;;2.85;2.47;;;;;;;23.70;31.56;100147.62;4466359;32;20080;-68
2022/04/26 13:05:45;;;;;;;4.53;2.70;;;;;;;23.18;32.64;100140.44;4451379;32;20104;-68
2022/04/26 13:08:14;;;;;;;2.83;2.03;;;;;;;22.71;33.23;100137.28;4465705;32;20153;-69
2022/04/26 13:10:42;;;;;;;2.60;2.40;;;;;;;23.01;33.92;100137.09;4466012;32;20981;-69
2022/04/26 13:13:10;;;;;;;4.15;2.60;;;;;;;22.92;33.57;100137.69;4466107;32;20139;-69
2022/04/26 13:15:41;;;;;;;2.05;1.95;;;;;;;22.60;33.78;100142.50;4465447;32;20127;-69
2022/04/26 13:18:10;;;;;;;1.83;1.70;;;;;;;23.37;32.76;100131.03;4465214;32;20092;-69
2022/04/26 13:20:38;;;;;;;6.57;1.80;;;;;;;23.37;32.40;100122.97;4465789;32;20085;-69
2022/04/26 13:23:12;;;;;;;2.58;2.28;;;;;;;23.48;33.25;100124.91;4462866;32;20096;-69
2022/04/26 13:25:41;;;;;;;5.85;2.70;;;;;;;23.17;33.09;100127.97;4454617;32;20224;-69
2022/04/26 13:28:09;;;;;;;4.78;2.12;;;;;;;22.05;34.60;100124.53;4453999;32;20157;-69
2022/04/26 13:30:38;;;;;;;2.70;2.50;;;;;;;21.72;35.91;100126.56;4454373;32;20524;-69
2022/04/26 13:33:06;;;;;;;4.47;2.67;;;;;;;21.75;36.96;100127.34;4454833;32;20171;-68
2022/04/26 13:35:35;;;;;;;3.12;2.80;;;;;;;21.61;35.79;100130.88;4455133;32;20088;-69
2022/04/26 13:38:05;;;;;;;3.22;2.92;;;;;;;;;;4453907;32;20166;-68
2022/04/26 13:40:34;;;;;;;4.85;2.65;;;;;;;22.07;35.43;100123.50;4454383;32;20178;-68
2022/04/26 13:43:01;;;;;;;2.45;2.25;;;;;;;22.23;36.17;100115.37;4455675;32;20751;-68
2022/04/26 13:45:28;;;;;;;2.30;2.15;;;;;;;22.23;35.73;100115.37;4461338;32;20164;-68
2022/04/26 13:47:56;;;;;;;2.72;2.53;;;;;;;21.58;35.96;100125.72;4462380;32;20153;-69
2022/04/26 13:50:24;;;;;;;2.37;2.28;;;;;;;21.52;36.56;100126.97;4460882;32;20089;-69
2022/04/26 13:52:51;;;;;;;8.20;2.55;;;;;;;21.56;37.54;100125.81;4455189;32;20139;-69
2022/04/26 13:55:19;;;;;;;5.05;2.10;;;;;;;21.55;36.80;100124.06;4470018;32;20478;-69
2022/04/26 13:57:47;;;;;;;2.60;2.28;;;;;;;21.38;36.81;100121.59;4470531;32;20149;-69
2022/04/26 14:00:16;;;;;;;2.83;2.20;;;;;;;21.19;36.62;100127.12;4470230;32;20463;-68
2022/04/26 14:02:46;;;;;;;4.28;1.60;;;;;;;21.03;37.21;100121.00;4470122;32;20104;-69
2022/04/26 14:05:14;;;;;;;2.05;1.90;;;;;;;21.45;37.06;100123.78;4455941;32;20135;-69
2022/04/26 14:07:42;;;;;;;2.40;2.08;;;;;;;21.33;37.06;100119.13;4469844;32;20169;-69
2022/04/26 14:10:09;;;;;;;2.70;2.50;;;;;;;21.35;37.17;100119.94;4469936;32;20088;-69
2022/04/26 14:12:36;;;;;;;4.65;2.30;;;;;;;21.26;36.81;100120.47;4469604;32;20084;-69
2022/04/26 14:23:27;;;;;;;2.60;2.05;;;;;;;21.66;36.65;100115.37;4468963;32;20085;-69
2022/04/26 14:25:59;;;;;;;2.65;1.60;;;;;;;22.96;35.51;100117.72;4456234;32;20120;-69
2022/04/26 14:28:26;;;;;;;2.60;2.30;;;;;;;24.03;32.68;100118.34;4470205;32;20169;-69
2022/04/26 14:30:54;;;;;;;4.10;1.85;;;;;;;24.48;32.63;100107.03;4469992;32;20425;-69
2022/04/26 14:33:21;;;;;;;3.15;1.90;;;;;;;24.83;32.35;100106.22;4469901;32;20122;-69
2022/04/26 14:35:48;;;;;;;2.40;2.20;;;;;;;25.23;31.51;100112.13;4469060;32;20096;-69
2022/04/26 14:38:15;;;;;;;4.82;2.30;;;;;;;25.33;30.95;100106.91;4468525;32;20523;-69
2022/04/26 14:40:43;;;;;;;3.15;1.80;;;;;;;26.23;28.55;100107.81;4468532;32;20589;-69
2022/04/26 14:43:11;;;;;;;3.30;1.90;;;;;;;26.47;29.89;100107.69;4468650;32;20101;-69
2022/04/26 14:45:47;;;;;;;2.20;1.80;;;;;;;27.20;28.59;100107.91;4468157;32;20096;-69
2022/04/26 14:48:16;;;;;;;2.28;1.75;;;;;;;28.19;26.67;100117.28;4468476;32;20429;-69
2022/04/26 14:50:53;;;;;;;2.65;1.80;;;;;;;28.56;26.01;100110.28;4469054;32;20131;-69
2022/04/26 14:53:20;;;;;;;2.30;2.00;;;;;;;28.09;27.09;100111.81;4466663;32;20100;-69
2022/04/26 14:56:06;;;;;;;2.17;2.03;;;;;;;28.73;25.34;100105.13;4453453;32;20176;-69
2022/04/26 14:58:54;;;;;;;2.70;1.90;;;;;;;28.71;25.19;100109.84;4454330;32;20105;-69
2022/04/26 15:01:21;;;;;;;1.77;1.67;;;;;;;30.64;24.17;100099.47;4454384;32;20456;-69
2022/04/26 15:03:49;;;;;;;8.23;1.67;;;;;;;29.60;23.49;100101.53;4461249;32;20672;-69
2022/04/26 15:06:16;;;;;;;2.17;1.70;;;;;;;30.16;23.97;100100.59;4468502;32;20100;-69
2022/04/26 15:11:29;;;;;;;4.90;1.58;;;;;;;27.53;26.96;100096.03;4468413;32;20103;-69
2022/04/26 15:16:46;;;;;;;1.85;1.75;;;;;;;27.00;27.67;100093.34;4468828;32;20081;-69
2022/04/26 15:19:14;;;;;;;2.03;1.77;;;;;;;27.08;27.31;100094.41;4459934;32;20176;-69
2022/04/26 15:21:43;;;;;;;3.72;1.87;;;;;;;27.75;27.20;100093.16;4454161;32;20114;-70
2022/04/26 15:24:12;;;;;;;3.35;1.65;;;;;;;27.44;27.86;100092.25;4454307;32;20347;-70
2022/04/26 15:26:39;;;;;;;1.30;1.30;;;;;;;28.64;26.43;100081.59;4454273;32;20160;-70
2022/04/26 15:29:07;;;;;;;5.97;2.20;;;;;;;28.98;25.18;100073.91;4454991;32;20499;-70
2022/04/26 15:31:34;;;;;;;2.20;1.83;;;;;;;28.81;24.49;100073.59;4454194;32;20111;-70
2022/04/26 15:34:02;;;;;;;2.08;1.90;;;;;;;29.94;23.96;100070.09;4453070;32;20153;-71
2022/04/26 15:36:29;;;;;;;3.12;1.70;;;;;;;31.09;22.20;100074.87;4455030;32;20101;-71
2022/04/26 15:38:58;;;;;;;1.60;1.50;;;;;;;30.51;22.51;100072.62;4454784;32;20496;-71
2022/04/26 15:41:27;;;;;;;2.30;1.52;;;;;;;31.25;23.66;100071.44;4460999;32;20139;-71
2022/04/26 15:43:54;;;;;;;1.55;1.42;;;;;;;32.84;20.30;100073.50;4456015;32;20918;-72
2022/04/26 15:46:41;;;;;;;4.00;1.70;;;;;;;31.52;22.66;100072.31;4452843;32;20598;-71
2022/04/26 15:49:10;;;;;;;6.93;1.95;;;;;;;30.30;23.31;100074.78;4453584;32;20130;-72